Mineral Point, Missouri
Current Conditions -  °F | °C
As of 4:15 PM on Thursday 23 Oct 2014 (Local Time) from KFAM Reporting Station
Clear Clear  
Wind Chill: 61°   Ceiling: Unl
Heat Index: 61°   Visibility: 10mi
Dew Point: 45°   Wind: 6mph
Humidity: 55%   Direction: 140°SE
Pressure: 30.13"   Gusts: NA
Location:  37.94°N, 90.72°W
Report Text: KFAM 232115Z AUTO 14005KT 10SM CLR 16/07 A3013 RMK AO1
Loading
Personal Weather Stations






























Interactive Weather Map
Tropical Storm Tracking
New forecast layout! Learn more

10-Day Weather Forecast

Advertisements
Track Severe Weather on mobile